Aviation Digital Data Service (ADDS)

Output produced by METARs form (1714 UTC 18 February 2019)
found at http://www.aviationweather.gov/metar/data/
 
Forecast for: ZUCK (CHONGQING/CHUNGK, CN)
Text: TAF ZUCK 181501Z 1818/1918 03003MPS 5000 BR SCT050 TX11/1908Z TN07/1822Z
Forecast period: 1800 UTC 18 February 2019 to 1800 UTC 19 February 2019
Forecast type: FROM: standard forecast or significant change
Winds: from the NNE (30 degrees) at 7 MPH (6 knots; 3.1 m/s)
Visibility: 3 miles (5 km)
Ceiling: at least 12,000 feet AGL
Clouds: scattered clouds at 5000 feet AGL
Weather: BR  (mist)